createdAt,value
2024-01-11T00:01:53.615Z,91.46
2024-01-11T00:04:57.086Z,92.00
2024-01-11T00:08:00.181Z,92.86
2024-01-11T00:11:03.836Z,91.59
2024-01-11T00:14:06.720Z,91.72
2024-01-11T00:17:09.974Z,93.05
2024-01-11T00:20:13.168Z,92.20
2024-01-11T00:23:17.064Z,93.25
2024-01-11T00:26:20.206Z,93.99
2024-01-11T00:29:23.321Z,93.28
2024-01-11T00:32:26.272Z,92.80
2024-01-11T00:35:30.796Z,93.07
2024-01-11T00:38:34.205Z,92.06
2024-01-11T00:41:37.726Z,92.63
2024-01-11T00:44:40.616Z,93.09
2024-01-11T00:47:44.222Z,92.50
2024-01-11T00:50:48.449Z,92.15
2024-01-11T00:53:51.712Z,92.03
2024-01-11T00:56:54.801Z,90.61
2024-01-11T00:59:58.100Z,91.93
2024-01-11T01:03:00.873Z,92.91
2024-01-11T01:06:04.788Z,92.74
2024-01-11T01:09:07.892Z,92.28
2024-01-11T01:12:11.707Z,91.66
2024-01-11T01:15:18.135Z,93.22
2024-01-11T01:18:21.442Z,92.16
2024-01-11T01:21:24.534Z,92.07
2024-01-11T01:24:27.883Z,92.00
2024-01-11T01:27:30.845Z,91.98
2024-01-11T01:30:34.265Z,90.67
2024-01-11T01:33:37.462Z,91.00
2024-01-11T01:36:42.717Z,91.53
2024-01-11T01:39:45.886Z,91.74
2024-01-11T01:42:50.406Z,92.00
2024-01-11T01:45:54.057Z,90.97
2024-01-11T01:48:59.569Z,90.81
2024-01-11T01:52:04.573Z,90.76
2024-01-11T01:55:10.344Z,90.51
2024-01-11T01:58:14.568Z,89.41
2024-01-11T02:01:19.016Z,89.64
2024-01-11T02:04:24.271Z,89.79
2024-01-11T02:07:27.637Z,88.82
2024-01-11T02:10:34.234Z,89.32
2024-01-11T02:13:37.497Z,89.63
2024-01-11T02:16:40.440Z,90.40
2024-01-11T02:19:43.553Z,90.06
2024-01-11T02:22:51.890Z,89.42
2024-01-11T02:25:55.218Z,89.84
2024-01-11T02:28:59.637Z,89.84
2024-01-11T02:32:04.289Z,90.79
2024-01-11T02:35:07.829Z,90.78
2024-01-11T02:38:11.215Z,90.95
2024-01-11T02:41:17.337Z,90.95
2024-01-11T02:44:20.803Z,90.43
2024-01-11T02:47:23.741Z,90.72
2024-01-11T02:50:26.997Z,90.00
2024-01-11T02:53:35.637Z,90.27
2024-01-11T02:56:39.484Z,94.26
2024-01-11T02:59:44.741Z,94.64
2024-01-11T03:02:48.008Z,92.36
2024-01-11T03:05:50.970Z,93.26
2024-01-11T03:08:54.375Z,93.73
2024-01-11T03:11:57.236Z,92.70
2024-01-11T03:15:01.102Z,93.19
2024-01-11T03:18:04.525Z,92.90
2024-01-11T03:21:08.141Z,92.44
2024-01-11T03:24:11.141Z,92.84
2024-01-11T03:27:14.441Z,92.19
2024-01-11T03:30:18.035Z,91.69
2024-01-11T03:33:21.876Z,91.71
2024-01-11T03:36:28.812Z,91.21
2024-01-11T03:39:32.087Z,91.31
2024-01-11T03:42:35.439Z,91.42
2024-01-11T03:45:38.683Z,91.54
2024-01-11T03:48:41.813Z,91.43
2024-01-11T03:51:47.878Z,90.72
2024-01-11T03:54:52.102Z,90.69
2024-01-11T03:57:55.435Z,91.45
2024-01-11T04:00:58.688Z,91.46
2024-01-11T04:04:02.598Z,91.44
2024-01-11T04:07:05.922Z,91.65
2024-01-11T04:10:10.826Z,91.65
2024-01-11T04:13:14.972Z,90.87
2024-01-11T04:16:18.375Z,90.71
2024-01-11T04:19:23.707Z,90.60
2024-01-11T04:22:31.214Z,90.74
2024-01-11T04:25:34.480Z,91.02
2024-01-11T04:28:39.114Z,91.00
2024-01-11T04:31:43.749Z,91.31
2024-01-11T04:34:47.160Z,91.42
2024-01-11T04:37:50.075Z,91.26
2024-01-11T04:40:53.145Z,91.04
2024-01-11T04:43:56.400Z,91.47
2024-01-11T04:47:02.225Z,91.53
2024-01-11T04:50:06.277Z,91.26
2024-01-11T04:53:09.530Z,90.75
2024-01-11T04:56:17.809Z,90.59
2024-01-11T04:59:21.315Z,90.07
2024-01-11T05:02:24.731Z,90.66
2024-01-11T05:05:28.235Z,92.36
2024-01-11T05:08:31.840Z,91.69
2024-01-11T05:11:35.233Z,91.41
2024-01-11T05:14:39.885Z,91.25
2024-01-11T05:17:44.889Z,90.83
2024-01-11T05:20:50.986Z,90.64
2024-01-11T05:23:54.281Z,91.19
2024-01-11T05:26:57.268Z,93.07
2024-01-11T05:30:00.878Z,94.02
2024-01-11T05:33:05.305Z,93.56
2024-01-11T05:36:09.410Z,92.44
2024-01-11T05:39:13.663Z,91.64
2024-01-11T05:42:21.293Z,92.40
2024-01-11T05:45:29.197Z,92.03
2024-01-11T05:48:43.520Z,92.21
2024-01-11T05:51:46.949Z,92.13
2024-01-11T05:54:50.314Z,91.84
2024-01-11T05:57:53.458Z,91.99
2024-01-11T06:00:57.131Z,91.50
2024-01-11T06:04:00.580Z,91.62
2024-01-11T06:07:03.867Z,91.72
2024-01-11T06:10:07.853Z,91.33
2024-01-11T06:13:11.188Z,91.58
2024-01-11T06:16:15.177Z,91.50
2024-01-11T06:19:18.513Z,91.30
2024-01-11T06:22:22.479Z,91.11
2024-01-11T06:25:25.793Z,91.33
2024-01-11T06:28:29.170Z,91.14
2024-01-11T06:31:32.292Z,92.22
2024-01-11T06:34:37.390Z,91.66
2024-01-11T06:37:40.395Z,92.00
2024-01-11T06:40:44.976Z,91.85
2024-01-11T06:43:48.084Z,92.06
2024-01-11T06:46:52.160Z,91.82
2024-01-11T06:49:55.319Z,93.07
2024-01-11T06:52:58.557Z,93.82
2024-01-11T06:56:02.181Z,94.08
2024-01-11T06:59:05.681Z,94.23
2024-01-11T07:02:09.202Z,94.59
2024-01-11T07:05:13.953Z,95.03
2024-01-11T07:08:17.051Z,96.50
2024-01-11T07:11:20.680Z,96.58
2024-01-11T07:14:24.232Z,96.23
2024-01-11T07:17:27.802Z,95.33
2024-01-11T07:20:31.256Z,95.60
2024-01-11T07:23:35.840Z,94.38
2024-01-11T07:26:38.650Z,93.34
2024-01-11T07:29:42.080Z,93.44
2024-01-11T07:32:45.159Z,93.08
2024-01-11T07:35:49.537Z,90.73
2024-01-11T07:38:52.931Z,89.78
2024-01-11T07:41:56.993Z,90.03
2024-01-11T07:45:00.385Z,89.95
2024-01-11T07:48:05.292Z,89.22
2024-01-11T07:51:09.044Z,89.92
2024-01-11T07:54:12.513Z,88.51
2024-01-11T07:57:15.504Z,89.42
2024-01-11T08:00:18.969Z,89.69
2024-01-11T08:03:22.258Z,92.15
2024-01-11T08:06:25.761Z,90.76
2024-01-11T08:09:29.957Z,90.12
2024-01-11T08:12:33.064Z,91.61
2024-01-11T08:15:36.521Z,91.70
2024-01-11T08:18:39.544Z,91.28
2024-01-11T08:21:43.562Z,92.23
2024-01-11T08:24:46.777Z,90.83
2024-01-11T08:27:50.214Z,90.63
2024-01-11T08:30:53.586Z,90.90
2024-01-11T08:33:58.675Z,88.71
2024-01-11T08:37:01.885Z,89.83
2024-01-11T08:40:07.266Z,92.21
2024-01-11T08:43:12.661Z,89.44
2024-01-11T08:46:27.826Z,84.06
2024-01-11T08:49:31.925Z,85.71
2024-01-11T08:52:38.235Z,79.57
2024-01-11T08:55:43.332Z,77.17
2024-01-11T08:58:48.180Z,77.00
2024-01-11T09:01:57.750Z,75.68
2024-01-11T09:05:15.932Z,76.29
2024-01-11T09:08:19.134Z,76.84
2024-01-11T09:11:23.133Z,72.89
2024-01-11T09:14:27.065Z,72.89
2024-01-11T09:17:30.680Z,62.46
2024-01-11T09:20:35.279Z,70.43
2024-01-11T09:23:39.428Z,70.77
2024-01-11T09:26:43.629Z,70.73
2024-01-11T09:29:50.078Z,66.75
2024-01-11T09:32:54.722Z,58.07
2024-01-11T09:35:58.340Z,58.07
2024-01-11T09:39:01.733Z,56.20
2024-01-11T09:42:14.114Z,55.84
2024-01-11T09:45:18.721Z,54.79
2024-01-11T09:48:24.611Z,51.66
2024-01-11T09:51:30.630Z,50.90
2024-01-11T09:54:33.926Z,53.35
2024-01-11T09:57:42.261Z,48.81
2024-01-11T10:00:48.356Z,47.75
2024-01-11T10:03:54.504Z,49.66
2024-01-11T10:06:58.846Z,48.82
2024-01-11T10:10:04.755Z,47.78
2024-01-11T10:13:08.459Z,46.48
2024-01-11T10:16:16.719Z,46.74
2024-01-11T10:19:23.063Z,46.90
2024-01-11T10:22:27.508Z,47.94
2024-01-11T10:25:30.892Z,47.12
2024-01-11T10:28:39.179Z,47.20
2024-01-11T10:31:42.475Z,47.62
2024-01-11T10:34:46.202Z,47.12
2024-01-11T10:37:52.466Z,45.04
2024-01-11T10:40:57.790Z,44.24
2024-01-11T10:44:03.155Z,43.09
2024-01-11T10:47:10.975Z,43.16
2024-01-11T10:50:15.089Z,42.93
2024-01-11T10:53:41.746Z,43.71
2024-01-11T10:56:45.251Z,43.17
2024-01-11T10:59:50.189Z,43.83
2024-01-11T11:02:56.107Z,44.35
2024-01-11T11:06:01.022Z,43.66
2024-01-11T11:09:07.723Z,42.71
2024-01-11T11:12:12.544Z,43.69
2024-01-11T11:15:16.577Z,42.80
2024-01-11T11:18:26.433Z,42.47
2024-01-11T11:21:30.243Z,42.26
2024-01-11T11:24:36.670Z,42.43
2024-01-11T11:27:39.577Z,42.77
2024-01-11T11:30:44.494Z,41.14
2024-01-11T11:33:51.630Z,42.79
2024-01-11T11:36:57.369Z,44.18
2024-01-11T11:40:02.057Z,42.12
2024-01-11T11:43:06.905Z,43.19
2024-01-11T11:46:10.321Z,43.66
2024-01-11T11:49:15.016Z,42.97
2024-01-11T11:52:19.189Z,41.45
2024-01-11T11:55:25.739Z,42.41
2024-01-11T11:58:30.411Z,41.40
2024-01-11T12:01:35.346Z,41.45
2024-01-11T12:04:40.862Z,43.18
2024-01-11T12:07:44.179Z,42.24
2024-01-11T12:14:05.672Z,40.04
2024-01-11T12:17:10.632Z,40.29
2024-01-11T12:20:14.557Z,40.64
2024-01-11T12:23:20.216Z,40.64
2024-01-11T12:26:24.276Z,42.24
2024-01-11T12:29:36.810Z,41.10
2024-01-11T12:32:48.324Z,42.82
2024-01-11T12:35:51.965Z,41.27
2024-01-11T12:38:55.353Z,42.12
2024-01-11T12:41:59.328Z,41.64
2024-01-11T12:45:03.161Z,40.19
2024-01-11T12:48:12.490Z,41.58
2024-01-11T12:51:21.689Z,42.65
2024-01-11T12:54:26.168Z,41.00
2024-01-11T12:57:31.242Z,39.66
2024-01-11T13:00:34.612Z,40.52
2024-01-11T13:03:40.056Z,41.94
2024-01-11T13:06:43.863Z,43.93
2024-01-11T13:09:47.083Z,43.43
2024-01-11T13:12:56.754Z,43.79
2024-01-11T13:16:13.035Z,42.96
2024-01-11T13:19:24.229Z,44.63
2024-01-11T13:22:32.446Z,48.12
2024-01-11T13:25:37.825Z,51.01
2024-01-11T13:28:42.047Z,53.41
2024-01-11T13:31:45.858Z,53.19
2024-01-11T13:34:49.125Z,53.89
2024-01-11T13:37:52.870Z,54.29
2024-01-11T13:40:56.138Z,55.62
2024-01-11T13:44:01.495Z,56.22
2024-01-11T13:47:04.818Z,57.33
2024-01-11T13:50:09.239Z,58.68
2024-01-11T13:53:12.827Z,62.20
2024-01-11T13:56:17.593Z,62.88
2024-01-11T13:59:21.342Z,63.56
2024-01-11T14:02:25.387Z,65.44
2024-01-11T14:05:29.932Z,66.85
2024-01-11T14:08:33.644Z,68.50
2024-01-11T14:11:37.742Z,70.70
2024-01-11T14:14:40.755Z,70.17
2024-01-11T14:17:44.262Z,72.38
2024-01-11T14:20:47.979Z,72.26
2024-01-11T14:23:52.674Z,75.38
2024-01-11T14:26:55.885Z,71.50
2024-01-11T14:29:59.195Z,72.04
2024-01-11T14:33:03.609Z,74.03
2024-01-11T14:36:07.935Z,75.13
2024-01-11T14:39:11.410Z,74.50
2024-01-11T14:42:14.696Z,77.30
2024-01-11T14:45:18.608Z,77.07
2024-01-11T14:48:24.999Z,77.90
2024-01-11T14:51:32.864Z,77.95
2024-01-11T14:54:38.324Z,79.35
2024-01-11T14:57:41.873Z,80.42
2024-01-11T15:00:45.891Z,80.15
2024-01-11T15:03:49.483Z,81.33
2024-01-11T15:06:54.735Z,81.91
2024-01-11T15:09:58.106Z,82.46
2024-01-11T15:13:01.516Z,82.69
2024-01-11T15:16:04.906Z,83.22
2024-01-11T15:19:08.166Z,82.68
2024-01-11T15:22:13.823Z,83.63
2024-01-11T15:25:18.767Z,85.44
2024-01-11T15:28:23.907Z,84.03
2024-01-11T15:31:28.466Z,84.76
2024-01-11T15:34:31.601Z,85.63
2024-01-11T15:37:37.692Z,87.02
2024-01-11T15:40:40.651Z,88.33
2024-01-11T15:43:48.803Z,88.09
2024-01-11T15:46:51.868Z,86.89
2024-01-11T15:49:55.410Z,87.53
2024-01-11T15:52:58.478Z,87.81
2024-01-11T15:56:02.272Z,87.17
2024-01-11T15:59:05.308Z,87.13
2024-01-11T16:02:10.043Z,87.62
2024-01-11T16:05:13.693Z,87.40
2024-01-11T16:08:18.475Z,86.90
2024-01-11T16:11:23.586Z,86.84
2024-01-11T16:14:26.600Z,85.34
2024-01-11T16:17:32.228Z,85.89
2024-01-11T16:20:39.458Z,85.10
2024-01-11T16:23:43.597Z,84.42
2024-01-11T16:26:46.751Z,85.09
2024-01-11T16:29:50.430Z,84.19
2024-01-11T16:32:53.410Z,84.07
2024-01-11T16:35:59.278Z,83.58
2024-01-11T16:39:04.562Z,83.28
2024-01-11T16:42:13.385Z,82.41
2024-01-11T16:45:16.643Z,82.49
2024-01-11T16:48:20.202Z,83.12
2024-01-11T16:51:23.854Z,83.51
2024-01-11T16:54:27.233Z,83.68
2024-01-11T16:57:30.368Z,84.08
2024-01-11T17:00:33.738Z,83.70
2024-01-11T17:03:38.150Z,82.52
2024-01-11T17:06:41.803Z,82.15
2024-01-11T17:09:44.780Z,82.60
2024-01-11T17:12:49.299Z,83.83
2024-01-11T17:15:52.412Z,82.56
2024-01-11T17:18:55.991Z,83.50
2024-01-11T17:21:58.980Z,83.16
2024-01-11T17:25:03.526Z,82.48
2024-01-11T17:28:06.609Z,82.67
2024-01-11T17:31:09.846Z,82.64
2024-01-11T17:34:12.985Z,82.66
2024-01-11T17:37:22.043Z,82.48
2024-01-11T17:40:25.091Z,81.41
2024-01-11T17:43:29.652Z,82.00
2024-01-11T17:46:33.732Z,81.66
2024-01-11T17:49:45.867Z,82.40
2024-01-11T17:52:51.287Z,82.51
2024-01-11T17:55:55.533Z,82.50
2024-01-11T17:58:58.299Z,82.04
2024-01-11T18:02:02.259Z,82.47
2024-01-11T18:05:06.202Z,82.94
2024-01-11T18:08:09.437Z,83.19
2024-01-11T18:11:13.890Z,82.43
2024-01-11T18:14:18.000Z,81.58
2024-01-11T18:17:21.599Z,81.26
2024-01-11T18:20:24.510Z,80.55
2024-01-11T18:23:28.835Z,79.98
2024-01-11T18:26:31.794Z,79.76
2024-01-11T18:29:35.985Z,79.58
2024-01-11T18:32:39.005Z,79.10
2024-01-11T18:35:44.798Z,79.11
2024-01-11T18:38:48.351Z,79.77
2024-01-11T18:41:54.806Z,80.03
2024-01-11T18:44:59.397Z,80.16
2024-01-11T18:48:07.205Z,79.93
2024-01-11T18:51:10.338Z,79.79
2024-01-11T18:54:13.946Z,80.55
2024-01-11T18:57:17.536Z,80.65
2024-01-11T19:00:21.679Z,80.79
2024-01-11T19:03:25.653Z,80.64
2024-01-11T19:06:31.118Z,80.46
2024-01-11T19:09:34.353Z,79.85
2024-01-11T19:12:39.565Z,79.03
2024-01-11T19:15:42.651Z,79.69
2024-01-11T19:18:46.984Z,79.47
2024-01-11T19:21:51.195Z,79.84
2024-01-11T19:24:54.496Z,79.27
2024-01-11T19:28:01.057Z,79.06
2024-01-11T19:31:06.899Z,79.37
2024-01-11T19:34:11.676Z,79.09
2024-01-11T19:37:19.464Z,78.85
2024-01-11T19:40:24.547Z,80.11
2024-01-11T19:43:28.378Z,80.13
2024-01-11T19:46:35.113Z,81.77
2024-01-11T19:49:39.181Z,80.75
2024-01-11T19:52:43.078Z,81.42
2024-01-11T19:55:49.032Z,82.29
2024-01-11T19:58:53.848Z,83.55
2024-01-11T20:01:59.399Z,83.89
2024-01-11T20:05:06.393Z,83.87
2024-01-11T20:08:09.790Z,82.53
2024-01-11T20:11:13.926Z,81.59
2024-01-11T20:14:19.718Z,81.12
2024-01-11T20:17:23.775Z,81.69
2024-01-11T20:20:26.612Z,81.73
2024-01-11T20:23:30.685Z,82.57
2024-01-11T20:26:33.971Z,81.65
2024-01-11T20:29:37.148Z,81.29
2024-01-11T20:32:40.565Z,81.96
2024-01-11T20:35:45.043Z,81.98
2024-01-11T20:38:48.216Z,81.38
2024-01-11T20:41:51.874Z,80.46
2024-01-11T20:44:55.033Z,80.11
2024-01-11T20:47:58.702Z,79.93
2024-01-11T20:51:02.978Z,80.08
2024-01-11T20:54:06.331Z,80.40
2024-01-11T20:57:11.246Z,80.51
2024-01-11T21:00:17.840Z,80.30
2024-01-11T21:03:21.518Z,80.92
2024-01-11T21:06:24.829Z,82.01
2024-01-11T21:09:27.841Z,81.81
2024-01-11T21:12:31.043Z,81.85
2024-01-11T21:15:34.230Z,82.15
2024-01-11T21:18:37.829Z,84.25
2024-01-11T21:21:41.666Z,84.16
2024-01-11T21:24:46.184Z,82.86
2024-01-11T21:27:50.058Z,82.82
2024-01-11T21:30:53.410Z,83.56
2024-01-11T21:33:57.197Z,82.92
2024-01-11T21:37:02.341Z,82.62
2024-01-11T21:40:05.779Z,82.15
2024-01-11T21:43:10.080Z,82.33
2024-01-11T21:46:13.963Z,81.96
2024-01-11T21:49:20.370Z,83.16
2024-01-11T21:52:24.643Z,83.79
2024-01-11T21:55:27.829Z,83.00
2024-01-11T21:58:31.295Z,82.56
2024-01-11T22:01:42.862Z,83.02
2024-01-11T22:04:46.281Z,83.26
2024-01-11T22:07:50.461Z,83.33
2024-01-11T22:10:55.766Z,83.86
2024-01-11T22:13:59.450Z,83.32
2024-01-11T22:17:03.101Z,83.96
2024-01-11T22:20:07.081Z,84.03
2024-01-11T22:23:10.972Z,84.13
2024-01-11T22:26:13.919Z,85.29
2024-01-11T22:29:17.083Z,84.76
2024-01-11T22:32:20.004Z,84.72
2024-01-11T22:35:23.458Z,85.59
2024-01-11T22:38:29.453Z,84.99
2024-01-11T22:41:39.844Z,85.50
2024-01-11T22:44:45.378Z,84.77
2024-01-11T22:47:48.765Z,85.09
2024-01-11T22:50:51.847Z,85.17
2024-01-11T22:53:55.240Z,85.06
2024-01-11T22:56:58.393Z,84.97
2024-01-11T23:00:04.328Z,85.25
2024-01-11T23:03:07.326Z,86.13
2024-01-11T23:06:12.113Z,85.92
2024-01-11T23:09:15.029Z,87.88
2024-01-11T23:12:20.390Z,88.55
2024-01-11T23:15:23.917Z,88.22
2024-01-11T23:18:27.977Z,89.02
2024-01-11T23:21:30.912Z,87.06
2024-01-11T23:24:34.635Z,86.73
2024-01-11T23:27:37.705Z,87.03
2024-01-11T23:30:42.136Z,89.63
2024-01-11T23:33:45.387Z,90.23
2024-01-11T23:36:48.918Z,90.98
2024-01-11T23:39:52.012Z,89.62
2024-01-11T23:42:55.340Z,89.38
2024-01-11T23:45:58.486Z,89.63
2024-01-11T23:49:03.131Z,87.35
2024-01-11T23:52:07.031Z,87.84
2024-01-11T23:55:10.362Z,87.05
2024-01-11T23:58:13.524Z,88.05
